Terminal Aerodrome Forecast
Issued by NWS

Home | Current Version | Previous Version | Text Only | Print | Product List | Glossary On
Versions: 1 2 3 4 5 6 7 8 9 10 11 12 13 14 15 16 17 18 19 20 21 22 23 24
000
FTUS43 KPAH 171732 AAA
TAFOWB
TAF AMD
KOWB 171732Z 1718/1812 17008KT 5SM BR OVC008
     FM171830 15009KT P6SM BKN080
     FM180000 17012KT P6SM VCSH BKN050
     FM180600 19015G25KT P6SM BKN025 PROB30 1806/1812 -SHRA=

USA.gov is the U.S. government's official web portal to all federal, state and local government web resources and services.